ADDS METAR Data INFO
IDs: Format: Raw Decoded Include TAF

Data at: 0455 UTC 25 May 2018

KGZN 250420Z AUTO 14008KT 10SM CLR 25/17 A3003 RMK AO2
KGZN 250400Z AUTO 14009KT 10SM CLR 25/17 A3003 RMK AO2
KGZN 250340Z AUTO 15008KT 10SM CLR 26/17 A3003 RMK AO2
KGZN 250320Z AUTO 13009KT 10SM CLR 26/17 A3002 RMK AO2
KGZN 250300Z AUTO 13009KT 10SM CLR 27/17 A3002 RMK AO2
KGZN 250240Z AUTO 13008KT 10SM CLR 27/17 A3002 RMK AO2
KGZN 250220Z AUTO 13008KT 10SM CLR 28/17 A3001 RMK AO2
KGZN 250200Z AUTO 13009KT 10SM CLR 28/18 A3001 RMK AO2
KGZN 250140Z AUTO 13011KT 10SM CLR 28/18 A3000 RMK AO2
KGZN 250120Z AUTO 13010KT 10SM CLR 29/18 A2999 RMK AO2
KGZN 250100Z AUTO 13012KT 10SM CLR 29/18 A2999 RMK AO2
KGZN 250040Z AUTO 13010KT 10SM CLR 30/17 A2998 RMK AO2
KGZN 250020Z AUTO 13009KT 10SM CLR 31/17 A2998 RMK AO2
KGZN 250000Z AUTO 12010KT 10SM CLR 32/16 A2998 RMK AO2
KGZN 242340Z AUTO 12010KT 10SM CLR 33/16 A2999 RMK AO2
KGZN 242320Z AUTO 12008G15KT 10SM CLR 33/16 A2999 RMK AO2
KGZN 242300Z AUTO 14011KT 10SM FEW075 33/16 A2999 RMK AO2
KGZN 242240Z AUTO 14008KT 10SM SCT075 33/15 A3000 RMK AO2
KGZN 242220Z AUTO 14006KT 10SM CLR 34/15 A3000 RMK AO2
KGZN 242200Z AUTO 14008G20KT 10SM CLR 34/15 A3001 RMK AO2
KGZN 242140Z AUTO 13009KT 10SM FEW080 FEW100 33/15 A3002 RMK AO2
KGZN 242120Z AUTO 15010KT 10SM SCT080 34/15 A3002 RMK AO2
KGZN 242100Z AUTO VRB04G11KT 10SM FEW080 33/15 A3003 RMK AO2
KGZN 242040Z AUTO 14009KT 10SM SCT075 SCT085 32/15 A3004 RMK AO2
KGZN 242020Z AUTO 15006G12KT 10SM FEW070 32/15 A3004 RMK AO2
KGZN 242000Z AUTO 15006KT 10SM CLR 33/15 A3005 RMK AO2
KGZN 241940Z AUTO 13008KT 10SM CLR 31/15 A3005 RMK AO2
KGZN 241920Z AUTO 14009G15KT 10SM FEW060 33/15 A3006 RMK AO2
KGZN 241900Z AUTO VRB06G12KT 10SM CLR 32/17 A3006 RMK AO2
KGZN 241840Z AUTO VRB06G13KT 10SM FEW049 FEW055 FEW070 32/17 A3008 RMK AO2
KGZN 241820Z AUTO VRB04G10KT 10SM SCT049 BKN055 BKN075 31/18 A3009 RMK AO2
KGZN 241800Z AUTO 22004G11KT 10SM FEW048 SCT055 SCT080 30/18 A3009 RMK AO2
KGZN 241740Z AUTO VRB06G12KT 10SM CLR 31/18 A3010 RMK AO2
KGZN 241720Z AUTO VRB05G12KT 10SM CLR 30/18 A3010 RMK AO2
KGZN 241700Z AUTO 19008KT 140V220 10SM CLR 30/18 A3011 RMK AO2
KGZN 241640Z AUTO VRB05G11KT 10SM CLR 29/19 A3011 RMK AO2
KGZN 241620Z AUTO VRB06G11KT 10SM CLR 29/19 A3011 RMK AO2
KGZN 241600Z AUTO 18005G10KT 10SM CLR 28/19 A3011 RMK AO2
KGZN 241540Z AUTO 18008KT 10SM CLR 27/20 A3011 RMK AO2
KGZN 241520Z AUTO 16007KT 10SM CLR 27/20 A3012 RMK AO2
KGZN 241500Z AUTO 20006G12KT 10SM CLR 26/20 A3012 RMK AO2
KGZN 241440Z AUTO 17008KT 10SM CLR 25/20 A3012 RMK AO2
KGZN 241420Z AUTO 20007G12KT 10SM CLR 25/20 A3011 RMK AO2
KGZN 241340Z AUTO 20008KT 10SM CLR 23/20 A3011 RMK AO2
KGZN 241320Z AUTO 20009KT 10SM CLR 23/20 A3010 RMK AO2
KGZN 241300Z AUTO 19006G12KT 10SM SCT007 22/20 A3010 RMK AO2
KGZN 241240Z AUTO 18008KT 10SM SCT008 20/20 A3009 RMK AO2
KGZN 241220Z AUTO 18009KT 10SM CLR 19/19 A3009 RMK AO2
KGZN 241200Z AUTO 17007KT 10SM CLR 19/19 A3008 RMK AO2
KGZN 241140Z AUTO 17007KT 10SM CLR 19/18 A3008 RMK AO2
KGZN 241120Z AUTO 17006KT 10SM CLR 19/18 A3008 RMK AO2
KGZN 241100Z AUTO 15007KT 10SM CLR 19/18 A3007 RMK AO2
KGZN 241040Z AUTO 14008KT 10SM CLR 19/18 A3006 RMK AO2
KGZN 241020Z AUTO 14008KT 10SM CLR 19/18 A3005 RMK AO2
KGZN 241000Z AUTO 15008KT 10SM CLR 20/18 A3005 RMK AO2
KGZN 240940Z AUTO 15008KT 10SM FEW080 20/18 A3006 RMK AO2
KGZN 240920Z AUTO 13008KT 10SM FEW050 SCT080 20/18 A3006 RMK AO2
KGZN 240900Z AUTO 15008KT 10SM FEW048 20/18 A3005 RMK AO2
KGZN 240840Z AUTO 16008KT 10SM CLR 20/18 A3005 RMK AO2
KGZN 240820Z AUTO 14008KT 10SM CLR 20/18 A3006 RMK AO2
KGZN 240800Z AUTO 14008KT 10SM CLR 21/18 A3006 RMK AO2
KGZN 240740Z AUTO 16009KT 10SM CLR 21/18 A3007 RMK AO2
KGZN 240720Z AUTO 15009KT 10SM FEW085 21/18 A3008 RMK AO2
KGZN 240700Z AUTO 15008KT 10SM CLR 21/18 A3008 RMK AO2
KGZN 240640Z AUTO 14008KT 10SM CLR 21/18 A3008 RMK AO2
KGZN 240620Z AUTO 16007KT 10SM CLR 21/18 A3008 RMK AO2
KGZN 240600Z AUTO 15008KT 10SM CLR 22/18 A3009 RMK AO2
KGZN 240540Z AUTO 14008KT 10SM CLR 21/18 A3008 RMK AO2
KGZN 240520Z AUTO 14006KT 10SM CLR 21/18 A3008 RMK AO2
KGZN 240500Z AUTO 15006KT 10SM CLR 22/18 A3008 RMK AO2
KGZN 240440Z AUTO 15006KT 10SM CLR 23/18 A3008 RMK AO2
KGZN 240420Z AUTO 16007KT 10SM CLR 24/18 A3008 RMK AO2
KGZN 240400Z AUTO 14008KT 10SM CLR 24/18 A3008 RMK AO2
KGZN 240340Z AUTO 15008KT 10SM CLR 25/18 A3007 RMK AO2
KGZN 240320Z AUTO 13010KT 10SM CLR 25/17 A3006 RMK AO2
KGZN 240300Z AUTO 13007KT 10SM CLR 25/17 A3005 RMK AO2
KGZN 240240Z AUTO 13007KT 10SM CLR 26/17 A3004 RMK AO2
KGZN 240220Z AUTO 13008KT 10SM CLR 26/17 A3003 RMK AO2
KGZN 240200Z AUTO 13009KT 10SM CLR 27/17 A3002 RMK AO2
KGZN 240140Z AUTO 13009G15KT 10SM CLR 27/17 A3001 RMK AO2
KGZN 240120Z AUTO 13010KT 10SM CLR 28/16 A3000 RMK AO2
KGZN 240100Z AUTO 13010G17KT 10SM CLR 28/16 A2999 RMK AO2
KGZN 240040Z AUTO 13013G18KT 10SM CLR 29/15 A2998 RMK AO2
KGZN 240020Z AUTO 13011G19KT 10SM CLR 30/16 A2998 RMK AO2
KGZN 240000Z AUTO 12010G18KT 10SM CLR 30/16 A2998 RMK AO2
KGZN 232340Z AUTO 13015G20KT 10SM CLR 31/16 A2998 RMK AO2
KGZN 232320Z AUTO 14013G19KT 10SM FEW060 31/16 A2998 RMK AO2
KGZN 232300Z AUTO 14017KT 10SM FEW060 31/16 A2999 RMK AO2
KGZN 232240Z AUTO 13013KT 10SM FEW065 32/16 A2999 RMK AO2
KGZN 232220Z AUTO 13013KT 10SM SCT065 SCT080 33/15 A3000 RMK AO2
KGZN 232200Z AUTO 13008G16KT 10SM SCT060 32/15 A3000 RMK AO2
KGZN 232140Z AUTO 14010G17KT 110V170 10SM CLR 32/15 A3001 RMK AO2
KGZN 232120Z AUTO 15007G14KT 10SM CLR 32/14 A3001 RMK AO2
KGZN 232100Z AUTO 16009G16KT 10SM CLR 32/15 A3002 RMK AO2
KGZN 232040Z AUTO 12008G19KT 10SM CLR 31/14 A3003 RMK AO2
KGZN 232020Z AUTO 15010KT 10SM SCT060 SCT075 32/15 A3003 RMK AO2
KGZN 232000Z AUTO 19004G13KT 10SM BKN060 BKN075 32/15 A3003 RMK AO2
KGZN 231940Z AUTO 13015KT 10SM SCT060 32/15 A3004 RMK AO2
KGZN 231920Z AUTO 13010KT 10SM FEW060 31/15 A3004 RMK AO2
KGZN 231900Z AUTO 14012G17KT 10SM FEW060 32/15 A3005 RMK AO2
KGZN 231840Z AUTO 17011KT 10SM FEW050 31/16 A3006 RMK AO2
KGZN 231820Z AUTO 13009KT 10SM SCT050 30/16 A3007 RMK AO2
KGZN 231800Z AUTO VRB06G14KT 10SM CLR 30/16 A3007 RMK AO2
KGZN 231740Z AUTO 15011KT 10SM CLR 30/16 A3008 RMK AO2
KGZN 231720Z AUTO VRB06G17KT 10SM CLR 30/16 A3008 RMK AO2
KGZN 231700Z AUTO 19006G14KT 10SM CLR 29/16 A3008 RMK AO2